createdAt,value
2022-08-04T00:02:24.128Z,18.94
2022-08-04T00:05:05.368Z,18.93
2022-08-04T00:07:52.592Z,18.93
2022-08-04T00:10:22.488Z,18.88
2022-08-04T00:12:52.050Z,18.93
2022-08-04T00:15:20.029Z,18.94
2022-08-04T00:17:54.076Z,18.88
2022-08-04T00:20:22.032Z,18.92
2022-08-04T00:22:52.199Z,18.94
2022-08-04T00:25:19.614Z,18.92
2022-08-04T00:27:47.045Z,18.89
2022-08-04T00:30:13.767Z,18.88
2022-08-04T00:32:43.813Z,18.86
2022-08-04T00:35:14.113Z,18.85
2022-08-04T00:37:44.869Z,18.85
2022-08-04T00:40:41.079Z,18.83
2022-08-04T00:43:43.233Z,18.86
2022-08-04T00:46:24.809Z,18.88
2022-08-04T00:49:28.840Z,18.85
2022-08-04T00:52:32.363Z,18.89
2022-08-04T00:55:12.860Z,18.88
2022-08-04T00:58:18.865Z,18.88
2022-08-04T01:00:53.484Z,18.92
2022-08-04T01:03:29.774Z,18.94
2022-08-04T01:06:16.818Z,18.98
2022-08-04T01:08:50.331Z,19.01
2022-08-04T01:11:23.266Z,19.00
2022-08-04T01:14:06.348Z,19.00
2022-08-04T01:16:39.827Z,19.02
2022-08-04T01:19:27.814Z,19.00
2022-08-04T01:22:04.261Z,19.06
2022-08-04T01:24:43.328Z,19.06
2022-08-04T01:27:26.237Z,19.06
2022-08-04T01:29:58.350Z,19.05
2022-08-04T01:32:53.455Z,19.04
2022-08-04T01:35:47.565Z,19.06
2022-08-04T01:38:34.453Z,18.97
2022-08-04T01:41:13.229Z,19.02
2022-08-04T01:43:45.456Z,18.99
2022-08-04T01:46:17.394Z,18.97
2022-08-04T01:48:47.770Z,18.95
2022-08-04T01:51:14.917Z,18.92
2022-08-04T01:53:43.785Z,18.88
2022-08-04T01:56:11.957Z,18.89
2022-08-04T01:58:40.430Z,18.87
2022-08-04T02:01:12.605Z,18.86
2022-08-04T02:04:19.752Z,18.86
2022-08-04T02:06:32.996Z,18.82
2022-08-04T02:09:32.314Z,18.74
2022-08-04T02:12:43.888Z,18.79
2022-08-04T02:15:16.555Z,18.78
2022-08-04T02:18:00.576Z,18.74
2022-08-04T02:20:43.480Z,18.73
2022-08-04T02:23:15.379Z,18.72
2022-08-04T02:26:06.943Z,18.65
2022-08-04T02:28:45.322Z,18.70
2022-08-04T02:31:32.487Z,18.68
2022-08-04T02:34:24.210Z,18.70
2022-08-04T02:36:52.411Z,18.70
2022-08-04T02:39:21.022Z,18.69
2022-08-04T02:41:49.525Z,18.69
2022-08-04T02:44:28.259Z,18.63
2022-08-04T02:46:55.441Z,18.72
2022-08-04T02:49:23.322Z,18.70
2022-08-04T02:51:55.211Z,18.70
2022-08-04T02:54:33.918Z,18.71
2022-08-04T02:57:02.503Z,18.71
2022-08-04T02:59:42.526Z,18.70
2022-08-04T03:02:09.240Z,18.75
2022-08-04T03:04:51.095Z,18.73
2022-08-04T03:07:39.117Z,18.78
2022-08-04T03:10:38.504Z,18.83
2022-08-04T03:13:06.051Z,18.77
2022-08-04T03:15:42.365Z,18.80
2022-08-04T03:18:33.816Z,18.74
2022-08-04T03:21:26.352Z,18.82
2022-08-04T03:24:19.599Z,18.79
2022-08-04T03:27:07.659Z,18.77
2022-08-04T03:29:55.366Z,18.68
2022-08-04T03:32:37.575Z,18.68
2022-08-04T03:35:13.621Z,18.73
2022-08-04T03:38:13.804Z,18.75
2022-08-04T03:41:02.077Z,18.69
2022-08-04T03:43:57.516Z,18.77
2022-08-04T03:46:29.045Z,18.77
2022-08-04T03:49:40.634Z,18.78
2022-08-04T03:52:32.051Z,18.86
2022-08-04T03:55:17.564Z,18.90
2022-08-04T03:58:21.882Z,18.94
2022-08-04T04:01:03.417Z,18.99
2022-08-04T04:03:49.419Z,19.05
2022-08-04T04:06:57.611Z,19.12
2022-08-04T04:09:56.717Z,19.21
2022-08-04T04:12:35.673Z,19.24
2022-08-04T04:15:24.049Z,19.28
2022-08-04T04:18:17.130Z,19.34
2022-08-04T04:21:08.145Z,19.37
2022-08-04T04:23:52.455Z,19.39
2022-08-04T04:26:59.306Z,19.38
2022-08-04T04:29:40.799Z,19.39
2022-08-04T04:32:24.365Z,19.35
2022-08-04T04:35:18.843Z,19.29
2022-08-04T04:38:20.349Z,19.33
2022-08-04T04:41:08.812Z,19.36
2022-08-04T04:44:00.585Z,19.37
2022-08-04T04:46:33.696Z,19.38
2022-08-04T04:49:25.153Z,19.28
2022-08-04T04:52:18.023Z,19.29
2022-08-04T04:54:56.015Z,19.34
2022-08-04T04:57:54.481Z,19.29
2022-08-04T05:00:13.670Z,19.28
2022-08-04T05:03:01.696Z,19.26
2022-08-04T05:05:45.399Z,19.19
2022-08-04T05:08:43.028Z,19.21
2022-08-04T05:11:27.715Z,19.25
2022-08-04T05:14:38.768Z,19.23
2022-08-04T05:16:51.272Z,19.37
2022-08-04T05:19:37.994Z,19.41
2022-08-04T05:22:14.219Z,19.41
2022-08-04T05:24:44.608Z,19.45
2022-08-04T05:27:20.585Z,19.50
2022-08-04T05:29:53.263Z,19.51
2022-08-04T05:32:24.736Z,19.51
2022-08-04T05:35:05.896Z,19.48
2022-08-04T05:37:34.929Z,19.60
2022-08-04T05:40:07.139Z,19.51
2022-08-04T05:42:38.298Z,19.57
2022-08-04T05:45:06.928Z,19.58
2022-08-04T05:47:35.159Z,19.60
2022-08-04T05:50:06.663Z,19.64
2022-08-04T05:52:34.661Z,19.71
2022-08-04T05:55:02.694Z,19.80
2022-08-04T05:57:30.431Z,19.79
2022-08-04T06:00:00.186Z,19.77
2022-08-04T06:02:28.406Z,19.89
2022-08-04T06:04:57.879Z,19.90
2022-08-04T06:07:26.561Z,20.03
2022-08-04T06:09:53.839Z,20.16
2022-08-04T06:12:31.086Z,20.24
2022-08-04T06:15:00.200Z,20.32
2022-08-04T06:18:33.752Z,20.43
2022-08-04T06:20:22.963Z,20.50
2022-08-04T06:22:55.478Z,20.43
2022-08-04T06:25:33.200Z,20.48
2022-08-04T06:28:02.337Z,20.51
2022-08-04T06:30:32.400Z,20.50
2022-08-04T06:33:04.965Z,20.52
2022-08-04T06:35:33.931Z,20.51
2022-08-04T06:38:02.171Z,20.45
2022-08-04T06:40:33.379Z,20.49
2022-08-04T06:43:03.561Z,20.37
2022-08-04T06:45:31.858Z,20.42
2022-08-04T06:48:00.887Z,20.43
2022-08-04T06:51:28.656Z,20.56
2022-08-04T06:53:15.965Z,20.67
2022-08-04T06:55:45.130Z,20.80
2022-08-04T06:58:12.857Z,20.86
2022-08-04T07:00:41.712Z,20.94
2022-08-04T07:03:09.505Z,20.99
2022-08-04T07:05:36.721Z,21.02
2022-08-04T07:08:04.693Z,21.04
2022-08-04T07:10:31.842Z,21.11
2022-08-04T07:13:01.808Z,21.20
2022-08-04T07:15:29.026Z,21.23
2022-08-04T07:18:01.863Z,21.16
2022-08-04T07:20:30.353Z,21.24
2022-08-04T07:23:07.388Z,21.24
2022-08-04T07:26:11.148Z,21.34
2022-08-04T07:28:26.829Z,21.38
2022-08-04T07:30:55.720Z,21.39
2022-08-04T07:33:23.974Z,21.57
2022-08-04T07:36:08.382Z,21.59
2022-08-04T07:38:48.235Z,21.77
2022-08-04T07:41:40.687Z,21.83
2022-08-04T07:44:08.843Z,21.85
2022-08-04T07:46:36.790Z,21.85
2022-08-04T07:49:04.592Z,21.80
2022-08-04T07:51:32.902Z,21.76
2022-08-04T07:54:00.441Z,21.80
2022-08-04T07:56:28.624Z,21.81
2022-08-04T07:58:56.055Z,21.94
2022-08-04T08:01:26.937Z,22.07
2022-08-04T08:03:56.987Z,22.18
2022-08-04T08:06:32.648Z,22.14
2022-08-04T08:09:12.952Z,22.01
2022-08-04T08:12:38.226Z,21.93
2022-08-04T08:14:35.516Z,21.93
2022-08-04T08:17:03.295Z,21.87
2022-08-04T08:19:34.749Z,21.89
2022-08-04T08:22:02.679Z,21.94
2022-08-04T08:24:30.558Z,22.04
2022-08-04T08:26:57.919Z,22.24
2022-08-04T08:29:26.421Z,22.37
2022-08-04T08:31:56.394Z,22.45
2022-08-04T08:34:28.197Z,22.57
2022-08-04T08:37:17.868Z,22.64
2022-08-04T08:40:03.256Z,22.83
2022-08-04T08:42:47.787Z,22.79
2022-08-04T08:45:17.915Z,22.65
2022-08-04T08:48:12.147Z,22.52
2022-08-04T08:50:48.273Z,22.50
2022-08-04T08:53:32.185Z,22.44
2022-08-04T08:56:13.854Z,22.53
2022-08-04T08:58:49.940Z,22.46
2022-08-04T09:01:44.352Z,22.50
2022-08-04T09:04:46.734Z,22.39
2022-08-04T09:07:35.152Z,22.33
2022-08-04T09:10:19.130Z,22.45
2022-08-04T09:13:08.670Z,22.48
2022-08-04T09:15:54.316Z,22.57
2022-08-04T09:18:24.355Z,22.71
2022-08-04T09:21:06.442Z,22.83
2022-08-04T09:24:03.563Z,22.91
2022-08-04T09:27:01.269Z,22.96
2022-08-04T09:29:43.148Z,22.94
2022-08-04T09:32:29.218Z,22.92
2022-08-04T09:35:33.380Z,22.96
2022-08-04T09:38:22.113Z,22.94
2022-08-04T09:40:58.945Z,22.92
2022-08-04T09:43:59.122Z,22.93
2022-08-04T09:46:51.311Z,23.08
2022-08-04T09:49:23.309Z,23.07
2022-08-04T09:51:57.858Z,23.06
2022-08-04T09:54:33.568Z,23.00
2022-08-04T09:57:22.525Z,23.09
2022-08-04T10:00:06.118Z,23.18
2022-08-04T10:02:42.696Z,23.33
2022-08-04T10:05:21.597Z,23.44
2022-08-04T10:08:15.416Z,23.64
2022-08-04T10:11:21.430Z,23.61
2022-08-04T10:14:05.710Z,23.81
2022-08-04T10:16:53.946Z,23.73
2022-08-04T10:19:28.836Z,23.61
2022-08-04T10:22:29.362Z,23.65
2022-08-04T10:25:04.937Z,23.59
2022-08-04T10:28:00.257Z,23.64
2022-08-04T10:30:35.665Z,23.69
2022-08-04T10:33:21.460Z,23.61
2022-08-04T10:35:53.977Z,23.64
2022-08-04T10:38:42.763Z,23.57
2022-08-04T10:41:30.341Z,23.51
2022-08-04T10:44:16.265Z,23.46
2022-08-04T10:46:56.188Z,23.39
2022-08-04T10:49:38.095Z,23.55
2022-08-04T10:52:11.335Z,23.62
2022-08-04T10:54:55.826Z,23.80
2022-08-04T10:57:40.681Z,23.91
2022-08-04T11:00:19.901Z,23.89
2022-08-04T11:02:55.872Z,23.99
2022-08-04T11:05:44.140Z,24.00
2022-08-04T11:08:31.874Z,23.98
2022-08-04T11:11:02.797Z,23.96
2022-08-04T11:13:34.328Z,23.94
2022-08-04T11:16:05.831Z,23.88
2022-08-04T11:19:01.324Z,23.86
2022-08-04T11:21:34.067Z,23.87
2022-08-04T11:24:26.292Z,23.89
2022-08-04T11:27:00.042Z,23.97
2022-08-04T11:29:32.484Z,23.98
2022-08-04T11:32:02.659Z,24.03
2022-08-04T11:34:30.813Z,23.95
2022-08-04T11:37:03.477Z,23.70
2022-08-04T11:39:43.746Z,23.65
2022-08-04T11:42:18.758Z,23.54
2022-08-04T11:44:52.520Z,23.40
2022-08-04T11:47:27.286Z,23.25
2022-08-04T11:50:30.196Z,23.23
2022-08-04T11:52:58.261Z,23.15
2022-08-04T11:55:28.096Z,23.03
2022-08-04T11:57:55.326Z,23.02
2022-08-04T12:00:24.737Z,23.15
2022-08-04T12:03:09.766Z,23.25
2022-08-04T12:05:47.004Z,23.33
2022-08-04T12:08:28.841Z,23.38
2022-08-04T12:11:21.551Z,23.36
2022-08-04T12:14:19.489Z,23.33
2022-08-04T12:16:58.215Z,23.23
2022-08-04T12:19:52.160Z,23.01
2022-08-04T12:22:25.109Z,22.56
2022-08-04T12:25:03.940Z,22.13
2022-08-04T12:27:35.200Z,21.80
2022-08-04T12:31:02.074Z,21.62
2022-08-04T12:33:10.783Z,21.58
2022-08-04T12:36:10.060Z,21.43
2022-08-04T12:38:47.225Z,21.27
2022-08-04T12:41:19.261Z,21.25
2022-08-04T12:43:47.342Z,21.29
2022-08-04T12:46:24.671Z,21.37
2022-08-04T12:48:52.146Z,21.48
2022-08-04T12:52:06.504Z,21.54
2022-08-04T12:54:10.171Z,21.61
2022-08-04T12:56:38.683Z,21.71
2022-08-04T12:59:13.035Z,21.80
2022-08-04T13:02:07.187Z,21.88
2022-08-04T13:04:34.660Z,21.95
2022-08-04T13:07:07.768Z,21.99
2022-08-04T13:09:37.515Z,22.02
2022-08-04T13:12:32.355Z,22.05
2022-08-04T13:15:10.933Z,22.12
2022-08-04T13:18:00.332Z,22.24
2022-08-04T13:20:32.742Z,22.21
2022-08-04T13:23:11.602Z,22.30
2022-08-04T13:26:43.615Z,22.39
2022-08-04T13:28:34.437Z,22.41
2022-08-04T13:31:05.751Z,22.40
2022-08-04T13:33:35.971Z,22.44
2022-08-04T13:36:05.354Z,22.45
2022-08-04T13:38:33.859Z,22.41
2022-08-04T13:41:04.548Z,22.29
2022-08-04T13:44:16.152Z,22.35
2022-08-04T13:46:28.860Z,22.32
2022-08-04T13:49:25.833Z,22.20
2022-08-04T13:51:57.350Z,22.14
2022-08-04T13:54:35.134Z,22.16
2022-08-04T13:57:44.280Z,22.11
2022-08-04T14:00:12.080Z,22.20
2022-08-04T14:02:44.411Z,22.15
2022-08-04T14:05:19.064Z,22.26
2022-08-04T14:07:50.806Z,22.30
2022-08-04T14:10:17.979Z,22.36
2022-08-04T14:12:47.206Z,22.40
2022-08-04T14:16:01.432Z,22.38
2022-08-04T14:18:23.634Z,22.44
2022-08-04T14:21:01.798Z,22.42
2022-08-04T14:23:33.334Z,22.49
2022-08-04T14:26:00.325Z,22.48
2022-08-04T14:29:08.603Z,22.44
2022-08-04T14:31:21.678Z,22.52
2022-08-04T14:34:01.877Z,22.54
2022-08-04T14:37:04.674Z,22.58
2022-08-04T14:40:17.919Z,22.61
2022-08-04T14:42:55.430Z,22.61
2022-08-04T14:45:54.663Z,22.61
2022-08-04T14:48:22.499Z,22.60
2022-08-04T14:50:51.147Z,22.54
2022-08-04T14:53:21.816Z,22.46
2022-08-04T14:55:51.549Z,22.49
2022-08-04T14:58:35.055Z,22.51
2022-08-04T15:01:11.792Z,22.50
2022-08-04T15:03:51.731Z,22.42
2022-08-04T15:06:26.508Z,22.38
2022-08-04T15:08:56.369Z,22.32
2022-08-04T15:11:24.709Z,22.25
2022-08-04T15:13:53.198Z,22.20
2022-08-04T15:16:21.626Z,22.16
2022-08-04T15:18:49.449Z,22.07
2022-08-04T15:21:17.205Z,22.04
2022-08-04T15:23:44.299Z,21.98
2022-08-04T15:26:22.044Z,21.94
2022-08-04T15:29:02.055Z,21.90
2022-08-04T15:32:03.853Z,21.86
2022-08-04T15:34:23.720Z,21.81
2022-08-04T15:36:56.396Z,21.74
2022-08-04T15:39:44.924Z,21.65
2022-08-04T15:42:21.644Z,21.66
2022-08-04T15:44:51.552Z,21.58
2022-08-04T15:47:18.700Z,21.55
2022-08-04T15:49:47.112Z,21.48
2022-08-04T15:52:16.803Z,21.36
2022-08-04T15:54:51.973Z,21.37
2022-08-04T15:58:01.217Z,21.38
2022-08-04T16:00:28.556Z,21.34
2022-08-04T16:02:55.980Z,21.22
2022-08-04T16:05:23.482Z,21.25
2022-08-04T16:07:54.707Z,21.19
2022-08-04T16:10:48.608Z,21.22
2022-08-04T16:13:19.689Z,21.24
2022-08-04T16:16:03.138Z,21.22
2022-08-04T16:18:30.325Z,21.14
2022-08-04T16:21:03.912Z,21.19
2022-08-04T16:24:05.915Z,21.11
2022-08-04T16:26:36.565Z,21.17
2022-08-04T16:29:32.538Z,21.17
2022-08-04T16:32:05.889Z,21.17
2022-08-04T16:34:49.188Z,21.16
2022-08-04T16:37:19.243Z,21.08
2022-08-04T16:39:51.314Z,21.07
2022-08-04T16:42:28.041Z,21.13
2022-08-04T16:45:06.877Z,21.13
2022-08-04T16:47:49.217Z,21.12
2022-08-04T16:50:15.947Z,21.07
2022-08-04T16:52:44.969Z,21.06
2022-08-04T16:55:14.302Z,21.12
2022-08-04T16:57:41.425Z,21.13
2022-08-04T17:00:09.342Z,21.11
2022-08-04T17:02:36.266Z,21.09
2022-08-04T17:05:39.456Z,21.11
2022-08-04T17:10:56.015Z,21.11
2022-08-04T17:14:02.784Z,21.10
2022-08-04T17:16:29.516Z,21.10
2022-08-04T17:18:57.794Z,21.03
2022-08-04T17:21:33.180Z,21.06
2022-08-04T17:24:15.111Z,21.07
2022-08-04T17:26:45.538Z,21.05
2022-08-04T17:29:43.234Z,20.98
2022-08-04T17:32:21.541Z,20.97
2022-08-04T17:34:50.775Z,20.99
2022-08-04T17:37:38.932Z,20.96
2022-08-04T17:40:11.075Z,21.01
2022-08-04T17:42:39.900Z,20.99
2022-08-04T17:48:09.369Z,21.02
2022-08-04T17:50:36.721Z,21.00
2022-08-04T17:53:12.018Z,20.99
2022-08-04T17:55:49.621Z,20.93
2022-08-04T17:58:23.152Z,20.97
2022-08-04T18:01:23.210Z,20.97
2022-08-04T18:03:52.898Z,20.96
2022-08-04T18:06:22.373Z,20.91
2022-08-04T18:08:57.755Z,20.91
2022-08-04T18:11:29.810Z,20.92
2022-08-04T18:14:09.196Z,20.86
2022-08-04T18:16:45.630Z,20.87
2022-08-04T18:19:15.389Z,20.87
2022-08-04T18:21:46.494Z,20.80
2022-08-04T18:24:35.291Z,20.85
2022-08-04T18:27:17.486Z,20.77
2022-08-04T18:30:15.340Z,20.80
2022-08-04T18:32:33.790Z,20.79
2022-08-04T18:35:05.697Z,20.74
2022-08-04T18:38:06.624Z,20.74
2022-08-04T18:43:14.667Z,20.70
2022-08-04T18:45:42.147Z,20.62
2022-08-04T18:48:18.294Z,20.66
2022-08-04T18:51:10.182Z,20.64
2022-08-04T18:53:34.826Z,20.63
2022-08-04T18:56:06.108Z,20.62
2022-08-04T18:58:43.043Z,20.62
2022-08-04T19:01:14.015Z,20.62
2022-08-04T19:03:44.193Z,20.61
2022-08-04T19:06:13.857Z,20.62
2022-08-04T19:08:45.171Z,20.57
2022-08-04T19:11:37.204Z,20.60
2022-08-04T19:14:02.213Z,20.59
2022-08-04T19:16:31.019Z,20.61
2022-08-04T19:19:00.473Z,20.60
2022-08-04T19:22:01.498Z,20.62
2022-08-04T19:24:33.486Z,20.63
2022-08-04T19:27:06.813Z,20.65
2022-08-04T19:29:41.016Z,20.66
2022-08-04T19:32:14.734Z,20.65
2022-08-04T19:34:47.304Z,20.66
2022-08-04T19:37:56.158Z,20.67
2022-08-04T19:40:04.594Z,20.67
2022-08-04T19:42:31.913Z,20.65
2022-08-04T19:44:58.665Z,20.61
2022-08-04T19:48:15.848Z,20.68
2022-08-04T19:50:14.069Z,20.61
2022-08-04T19:52:51.453Z,20.69
2022-08-04T19:55:22.358Z,20.69
2022-08-04T19:57:50.433Z,20.67
2022-08-04T20:00:33.888Z,20.70
2022-08-04T20:03:02.998Z,20.63
2022-08-04T20:05:52.630Z,20.64
2022-08-04T20:08:17.501Z,20.67
2022-08-04T20:10:51.524Z,20.64
2022-08-04T20:13:20.887Z,20.63
2022-08-04T20:15:55.438Z,20.63
2022-08-04T20:18:36.397Z,20.61
2022-08-04T20:21:19.366Z,20.54
2022-08-04T20:23:52.773Z,20.49
2022-08-04T20:26:20.147Z,20.45
2022-08-04T20:28:51.803Z,20.43
2022-08-04T20:31:19.876Z,20.42
2022-08-04T20:33:53.801Z,20.39
2022-08-04T20:36:22.759Z,20.36
2022-08-04T20:38:52.951Z,20.26
2022-08-04T20:41:21.653Z,20.21
2022-08-04T20:43:49.654Z,20.25
2022-08-04T20:46:29.691Z,20.21
2022-08-04T20:48:58.405Z,20.16
2022-08-04T20:51:31.782Z,20.12
2022-08-04T20:54:02.200Z,20.11
2022-08-04T20:56:31.239Z,20.07
2022-08-04T20:59:01.299Z,20.04
2022-08-04T21:01:35.156Z,19.96
2022-08-04T21:04:27.780Z,19.99
2022-08-04T21:06:57.797Z,19.98
2022-08-04T21:09:37.449Z,19.89
2022-08-04T21:12:10.689Z,19.92
2022-08-04T21:14:53.906Z,19.83
2022-08-04T21:17:21.434Z,19.87
2022-08-04T21:20:12.713Z,19.83
2022-08-04T21:22:40.570Z,19.81
2022-08-04T21:25:15.742Z,19.75
2022-08-04T21:27:44.371Z,19.74
2022-08-04T21:30:24.026Z,19.71
2022-08-04T21:32:55.440Z,19.63
2022-08-04T21:35:37.022Z,19.68
2022-08-04T21:38:13.993Z,19.66
2022-08-04T21:40:54.711Z,19.58
2022-08-04T21:43:23.467Z,19.61
2022-08-04T21:45:55.736Z,19.54
2022-08-04T21:48:27.611Z,19.58
2022-08-04T21:50:55.327Z,19.55
2022-08-04T21:53:22.646Z,19.44
2022-08-04T21:56:05.638Z,19.43
2022-08-04T21:58:37.340Z,19.43
2022-08-04T22:01:05.945Z,19.39
2022-08-04T22:03:52.644Z,19.34
2022-08-04T22:06:28.195Z,19.31
2022-08-04T22:08:57.557Z,19.21
2022-08-04T22:11:44.240Z,19.22
2022-08-04T22:14:16.590Z,19.21
2022-08-04T22:16:45.308Z,19.16
2022-08-04T22:19:13.678Z,19.11
2022-08-04T22:21:46.682Z,19.08
2022-08-04T22:24:14.416Z,19.07
2022-08-04T22:26:41.680Z,19.00
2022-08-04T22:29:14.417Z,19.03
2022-08-04T22:31:53.260Z,19.02
2022-08-04T22:34:24.286Z,18.99
2022-08-04T22:36:52.591Z,18.94
2022-08-04T22:39:23.449Z,18.90
2022-08-04T22:42:04.119Z,18.98
2022-08-04T22:44:33.253Z,18.89
2022-08-04T22:47:01.221Z,18.88
2022-08-04T22:49:31.483Z,18.91
2022-08-04T22:51:59.157Z,18.85
2022-08-04T22:54:28.465Z,18.90
2022-08-04T22:56:56.855Z,18.87
2022-08-04T22:59:24.132Z,18.86
2022-08-04T23:02:00.312Z,18.87
2022-08-04T23:04:33.076Z,18.79
2022-08-04T23:07:08.947Z,18.85
2022-08-04T23:09:49.193Z,18.77
2022-08-04T23:12:27.022Z,18.84
2022-08-04T23:14:58.589Z,18.84
2022-08-04T23:17:27.348Z,18.81
2022-08-04T23:19:58.161Z,18.72
2022-08-04T23:22:41.034Z,18.77
2022-08-04T23:25:16.338Z,18.76
2022-08-04T23:27:48.104Z,18.68
2022-08-04T23:30:19.508Z,18.75
2022-08-04T23:32:46.516Z,18.74
2022-08-04T23:35:14.983Z,18.74
2022-08-04T23:37:57.323Z,18.74
2022-08-04T23:40:33.591Z,18.74
2022-08-04T23:43:17.182Z,18.76
2022-08-04T23:46:07.427Z,18.73
2022-08-04T23:48:36.869Z,18.78
2022-08-04T23:51:13.635Z,18.79
2022-08-04T23:54:02.556Z,18.77
2022-08-04T23:56:28.667Z,18.75
2022-08-04T23:58:56.362Z,18.75
